createdAt,value
2022-10-09T00:01:13.048Z,101869.66
2022-10-09T00:03:54.034Z,101861.78
2022-10-09T00:06:35.412Z,101865.50
2022-10-09T00:09:19.425Z,101853.44
2022-10-09T00:12:01.333Z,101855.34
2022-10-09T00:14:42.206Z,101852.16
2022-10-09T00:17:22.160Z,101848.97
2022-10-09T00:20:03.629Z,101844.72
2022-10-09T00:22:47.195Z,101838.91
2022-10-09T00:25:25.975Z,101838.19
2022-10-09T00:28:04.731Z,101832.03
2022-10-09T00:30:47.998Z,101842.16
2022-10-09T00:33:30.903Z,101831.16
2022-10-09T00:36:33.070Z,101838.53
2022-10-09T00:39:14.089Z,101836.84
2022-10-09T00:41:53.916Z,101831.78
2022-10-09T00:44:48.851Z,101833.84
2022-10-09T00:47:32.507Z,101840.28
2022-10-09T00:50:15.116Z,101830.03
2022-10-09T00:52:56.952Z,101839.13
2022-10-09T00:55:38.992Z,101836.94
2022-10-09T00:58:20.161Z,101839.91
2022-10-09T01:01:01.407Z,101835.66
2022-10-09T01:03:44.771Z,101833.31
2022-10-09T01:06:30.998Z,101831.59
2022-10-09T01:09:14.564Z,101831.16
2022-10-09T01:11:57.285Z,101825.22
2022-10-09T01:14:40.503Z,101825.44
2022-10-09T01:17:21.996Z,101822.91
2022-10-09T01:20:05.589Z,101821.19
2022-10-09T01:22:47.556Z,101823.16
2022-10-09T01:25:32.448Z,101826.09
2022-10-09T01:28:13.068Z,101825.34
2022-10-09T01:30:52.837Z,101814.78
2022-10-09T01:33:31.667Z,101807.81
2022-10-09T01:36:12.461Z,101804.78
2022-10-09T01:38:54.246Z,101809.50
2022-10-09T01:41:37.295Z,101804.00
2022-10-09T01:44:18.948Z,101800.66
2022-10-09T01:47:01.796Z,101799.81
2022-10-09T01:49:44.746Z,101796.34
2022-10-09T01:52:28.863Z,101796.44
2022-10-09T01:55:12.861Z,101794.00
2022-10-09T01:57:53.554Z,101793.53
2022-10-09T02:00:35.992Z,101789.38
2022-10-09T02:03:18.164Z,101791.28
2022-10-09T02:06:01.162Z,101785.25
2022-10-09T02:08:42.950Z,101785.53
2022-10-09T02:11:24.141Z,101786.69
2022-10-09T02:14:07.186Z,101780.56
2022-10-09T02:16:51.268Z,101781.75
2022-10-09T02:19:32.955Z,101774.13
2022-10-09T02:22:14.305Z,101776.84
2022-10-09T02:24:55.398Z,101777.88
2022-10-09T02:27:37.905Z,101772.81
2022-10-09T02:30:18.199Z,101767.72
2022-10-09T02:32:57.995Z,101774.94
2022-10-09T02:35:39.856Z,101780.31
2022-10-09T02:38:20.810Z,101785.31
2022-10-09T02:41:00.903Z,101786.19
2022-10-09T02:43:44.071Z,101784.69
2022-10-09T02:46:25.150Z,101783.97
2022-10-09T02:49:06.528Z,101790.28
2022-10-09T02:51:47.830Z,101792.19
2022-10-09T02:54:27.678Z,101790.66
2022-10-09T02:57:07.502Z,101786.44
2022-10-09T02:59:47.295Z,101798.78
2022-10-09T03:02:27.204Z,101798.94
2022-10-09T03:05:09.182Z,101789.41
2022-10-09T03:07:53.055Z,101793.00
2022-10-09T03:10:33.333Z,101788.75
2022-10-09T03:13:14.328Z,101795.16
2022-10-09T03:15:59.474Z,101788.38
2022-10-09T03:18:42.531Z,101788.56
2022-10-09T03:21:23.904Z,101797.47
2022-10-09T03:24:18.547Z,101794.00
2022-10-09T03:26:59.576Z,101791.53
2022-10-09T03:29:39.335Z,101785.50
2022-10-09T03:32:19.376Z,101787.41
2022-10-09T03:35:02.596Z,101783.16
2022-10-09T03:37:43.593Z,101787.69
2022-10-09T03:40:23.384Z,101781.66
2022-10-09T03:43:03.543Z,101779.09
2022-10-09T03:45:44.704Z,101780.94
2022-10-09T03:48:27.970Z,101780.19
2022-10-09T03:51:09.029Z,101784.81
2022-10-09T03:53:48.816Z,101783.19
2022-10-09T03:56:30.630Z,101781.69
2022-10-09T03:59:11.960Z,101781.88
2022-10-09T04:01:55.008Z,101780.16
2022-10-09T04:04:35.974Z,101779.47
2022-10-09T04:07:15.856Z,101781.34
2022-10-09T04:09:55.686Z,101777.13
2022-10-09T04:12:35.507Z,101772.78
2022-10-09T04:15:15.280Z,101775.41
2022-10-09T04:17:55.068Z,101781.72
2022-10-09T04:20:33.226Z,101784.44
2022-10-09T04:23:13.151Z,101771.38
2022-10-09T04:25:54.873Z,101780.28
2022-10-09T04:28:37.981Z,101779.34
2022-10-09T04:31:18.962Z,101780.34
2022-10-09T04:34:00.356Z,101776.13
2022-10-09T04:36:40.126Z,101778.00
2022-10-09T04:39:19.920Z,101771.03
2022-10-09T04:41:59.761Z,101769.34
2022-10-09T04:44:41.553Z,101765.94
2022-10-09T04:47:22.633Z,101763.50
2022-10-09T04:50:06.539Z,101762.72
2022-10-09T04:52:49.373Z,101773.44
2022-10-09T04:55:29.978Z,101768.22
2022-10-09T04:58:10.156Z,101764.59
2022-10-09T05:00:51.258Z,101774.34
2022-10-09T05:03:34.679Z,101770.19
2022-10-09T05:06:15.853Z,101780.91
2022-10-09T05:08:57.014Z,101776.75
2022-10-09T05:11:41.731Z,101789.06
2022-10-09T05:14:25.139Z,101785.47
2022-10-09T05:17:14.128Z,101795.25
2022-10-09T05:19:55.427Z,101795.34
2022-10-09T05:22:35.257Z,101791.00
2022-10-09T05:25:15.481Z,101805.25
2022-10-09T05:28:00.203Z,101796.75
2022-10-09T05:30:42.711Z,101800.31
2022-10-09T05:33:22.492Z,101802.97
2022-10-09T05:36:05.297Z,101800.50
2022-10-09T05:38:48.379Z,101809.25
2022-10-09T05:41:29.380Z,101807.53
2022-10-09T05:44:13.268Z,101807.63
2022-10-09T05:46:56.371Z,101803.31
2022-10-09T05:49:39.361Z,101809.41
2022-10-09T05:52:20.377Z,101801.53
2022-10-09T05:55:02.172Z,101791.84
2022-10-09T05:57:43.198Z,101791.94
2022-10-09T06:00:24.983Z,101798.22
2022-10-09T06:03:05.971Z,101791.16
2022-10-09T06:06:01.804Z,101794.47
2022-10-09T06:08:44.233Z,101796.16
2022-10-09T06:11:28.162Z,101797.88
2022-10-09T06:14:08.847Z,101796.94
2022-10-09T06:16:49.736Z,101795.81
2022-10-09T06:19:44.382Z,101791.41
2022-10-09T06:22:24.276Z,101795.66
2022-10-09T06:25:08.164Z,101784.19
2022-10-09T06:27:48.632Z,101781.34
2022-10-09T06:30:28.485Z,101782.09
2022-10-09T06:33:09.958Z,101773.09
2022-10-09T06:36:09.661Z,101771.22
2022-10-09T06:38:48.868Z,101768.31
2022-10-09T06:41:29.551Z,101766.44
2022-10-09T06:44:16.685Z,101759.34
2022-10-09T06:46:58.214Z,101758.03
2022-10-09T06:49:38.030Z,101754.28
2022-10-09T06:52:17.902Z,101747.16
2022-10-09T06:55:18.450Z,101741.72
2022-10-09T06:58:00.431Z,101742.31
2022-10-09T07:00:39.309Z,101735.16
2022-10-09T07:03:19.458Z,101730.38
2022-10-09T07:06:08.062Z,101729.22
2022-10-09T07:08:49.065Z,101721.78
2022-10-09T07:11:29.174Z,101703.81
2022-10-09T07:14:10.837Z,101682.13
2022-10-09T07:16:52.182Z,101370.56
2022-10-09T07:19:34.685Z,101314.53
2022-10-09T07:22:17.715Z,101284.28
2022-10-09T07:24:58.691Z,101262.69
2022-10-09T07:27:38.556Z,101236.63
2022-10-09T07:30:18.396Z,101214.19
2022-10-09T07:32:58.134Z,101196.88
2022-10-09T07:35:38.004Z,101191.16
2022-10-09T07:38:19.789Z,101173.75
2022-10-09T07:41:04.618Z,101160.78
2022-10-09T07:43:45.671Z,101137.22
2022-10-09T07:46:38.739Z,101123.25
2022-10-09T07:49:20.432Z,101133.34
2022-10-09T07:52:01.339Z,101125.13
2022-10-09T07:54:41.208Z,101103.84
2022-10-09T07:57:20.983Z,101047.22
2022-10-09T08:00:02.844Z,100986.47
2022-10-09T08:02:51.966Z,100961.72
2022-10-09T08:05:33.491Z,100922.00
2022-10-09T08:08:28.027Z,100902.63
2022-10-09T08:11:11.398Z,100889.25
2022-10-09T08:13:50.757Z,100889.44
2022-10-09T08:16:32.252Z,100871.56
2022-10-09T08:19:12.028Z,100871.28
2022-10-09T08:21:53.881Z,100871.66
2022-10-09T08:24:46.643Z,100878.41
2022-10-09T08:27:26.401Z,100883.91
2022-10-09T08:30:09.219Z,100893.00
2022-10-09T08:32:49.488Z,100890.44
2022-10-09T08:35:34.462Z,100903.69
2022-10-09T08:38:37.463Z,100918.69
2022-10-09T08:41:17.890Z,100953.19
2022-10-09T08:44:02.589Z,100962.84
2022-10-09T08:46:47.394Z,100987.28
2022-10-09T08:49:29.625Z,101000.41
2022-10-09T08:52:14.859Z,101023.06
2022-10-09T08:54:56.940Z,101037.03
2022-10-09T08:57:37.114Z,101061.94
2022-10-09T09:00:29.272Z,101082.75
2022-10-09T09:03:15.665Z,101108.94
2022-10-09T09:05:58.120Z,101144.72
2022-10-09T09:08:42.092Z,101158.00
2022-10-09T09:11:23.796Z,101174.38
2022-10-09T09:14:12.659Z,101191.41
2022-10-09T09:16:57.234Z,101181.88
2022-10-09T09:19:41.252Z,101211.22
2022-10-09T09:22:24.844Z,101257.78
2022-10-09T09:25:08.799Z,101276.13
2022-10-09T09:27:50.301Z,101313.06
2022-10-09T09:30:32.451Z,101347.03
2022-10-09T09:33:15.040Z,101394.28
2022-10-09T09:35:59.937Z,101462.81
2022-10-09T09:38:54.778Z,101764.16
2022-10-09T09:41:42.292Z,101848.59
2022-10-09T09:44:24.621Z,101898.88
2022-10-09T09:47:21.501Z,101943.56
2022-10-09T09:50:02.928Z,101962.94
2022-10-09T09:52:43.435Z,101976.94
2022-10-09T09:55:43.814Z,101961.81
2022-10-09T09:58:23.741Z,101977.72
2022-10-09T10:01:21.691Z,101986.75
2022-10-09T10:04:05.088Z,101988.13
2022-10-09T10:06:46.181Z,101994.91
2022-10-09T10:09:29.419Z,101989.69
2022-10-09T10:12:14.162Z,102002.63
2022-10-09T10:14:55.058Z,102003.22
2022-10-09T10:17:34.833Z,102007.53
2022-10-09T10:20:16.713Z,102005.69
2022-10-09T10:22:58.093Z,102021.25
2022-10-09T10:25:39.098Z,102018.63
2022-10-09T10:28:21.947Z,102022.00
2022-10-09T10:31:01.978Z,102012.41
2022-10-09T10:33:43.332Z,102027.19
2022-10-09T10:36:25.336Z,102022.56
2022-10-09T10:39:08.988Z,102016.94
2022-10-09T10:41:51.102Z,102018.31
2022-10-09T10:44:35.021Z,102022.50
2022-10-09T10:47:14.027Z,102021.47
2022-10-09T10:49:55.055Z,102022.63
2022-10-09T10:52:39.054Z,102024.25
2022-10-09T10:55:23.088Z,102022.09
2022-10-09T10:58:05.770Z,102025.38
2022-10-09T11:00:52.683Z,102018.38
2022-10-09T11:03:40.085Z,102015.09
2022-10-09T11:06:21.720Z,102006.34
2022-10-09T11:09:05.811Z,102012.50
2022-10-09T11:11:47.748Z,102011.25
2022-10-09T11:14:33.387Z,102013.66
2022-10-09T11:17:26.428Z,102012.09
2022-10-09T11:20:23.789Z,102008.75
2022-10-09T11:23:09.482Z,102015.44
2022-10-09T11:25:51.612Z,102010.06
2022-10-09T11:28:36.185Z,101996.91
2022-10-09T11:31:17.837Z,101994.31
2022-10-09T11:33:59.783Z,101992.72
2022-10-09T11:36:40.932Z,101986.72
2022-10-09T11:39:22.325Z,101987.38
2022-10-09T11:42:19.792Z,101983.41
2022-10-09T11:45:03.816Z,101979.44
2022-10-09T11:47:45.854Z,101975.25
2022-10-09T11:50:35.073Z,101976.78
2022-10-09T11:53:16.287Z,101967.31
2022-10-09T11:56:06.044Z,101972.41
2022-10-09T11:58:57.480Z,101965.28
2022-10-09T12:01:38.522Z,101969.03
2022-10-09T12:04:43.554Z,101957.19
2022-10-09T12:07:30.828Z,101952.28
2022-10-09T12:10:20.945Z,101946.59
2022-10-09T12:13:02.986Z,101946.25
2022-10-09T12:15:46.819Z,101936.75
2022-10-09T12:18:30.877Z,101929.06
2022-10-09T12:21:19.881Z,101925.38
2022-10-09T12:24:00.173Z,101918.72
2022-10-09T12:26:40.637Z,101912.47
2022-10-09T12:29:27.081Z,101915.56
2022-10-09T12:32:09.011Z,101918.81
2022-10-09T12:34:50.459Z,101911.28
2022-10-09T12:37:34.820Z,101904.63
2022-10-09T12:40:16.780Z,101901.06
2022-10-09T12:42:58.579Z,101895.31
2022-10-09T12:45:37.559Z,101888.00
2022-10-09T12:48:20.012Z,101885.22
2022-10-09T12:51:00.716Z,101883.34
2022-10-09T12:53:46.453Z,101877.59
2022-10-09T12:56:28.120Z,101866.94
2022-10-09T12:59:08.220Z,101872.56
2022-10-09T13:01:49.617Z,101867.28
2022-10-09T13:04:32.434Z,101869.50
2022-10-09T13:07:17.091Z,101859.31
2022-10-09T13:09:59.949Z,101851.22
2022-10-09T13:12:42.570Z,101841.31
2022-10-09T13:15:30.320Z,101849.22
2022-10-09T13:18:21.639Z,101835.63
2022-10-09T13:21:02.770Z,101841.66
2022-10-09T13:23:43.231Z,101833.31
2022-10-09T13:26:26.016Z,101840.50
2022-10-09T13:29:06.370Z,101829.75
2022-10-09T13:31:49.392Z,101830.91
2022-10-09T13:34:32.478Z,101824.78
2022-10-09T13:37:14.009Z,101826.06
2022-10-09T13:40:17.962Z,101810.81
2022-10-09T13:43:00.377Z,101811.94
2022-10-09T13:45:42.156Z,101819.88
2022-10-09T13:48:25.469Z,101817.28
2022-10-09T13:51:06.957Z,101813.50
2022-10-09T13:53:47.479Z,101809.31
2022-10-09T13:56:27.898Z,101806.78
2022-10-09T13:59:24.124Z,101805.59
2022-10-09T14:02:05.128Z,101798.56
2022-10-09T14:04:46.460Z,101797.88
2022-10-09T14:07:26.255Z,101789.41
2022-10-09T14:10:08.601Z,101795.63
2022-10-09T14:12:49.357Z,101790.66
2022-10-09T14:15:30.519Z,101786.19
2022-10-09T14:18:12.408Z,101782.59
2022-10-09T14:20:53.324Z,101782.03
2022-10-09T14:23:33.128Z,101772.47
2022-10-09T14:26:12.983Z,101778.78
2022-10-09T14:28:50.875Z,101772.91
2022-10-09T14:31:31.137Z,101770.03
2022-10-09T14:34:12.335Z,101762.16
2022-10-09T14:36:52.370Z,101766.31
2022-10-09T14:39:33.627Z,101756.72
2022-10-09T14:42:14.973Z,101751.69
2022-10-09T14:44:55.026Z,101749.84
2022-10-09T14:47:36.244Z,101744.78
2022-10-09T14:50:16.031Z,101742.69
2022-10-09T14:52:55.824Z,101737.06
2022-10-09T14:55:36.269Z,101736.41
2022-10-09T14:58:16.991Z,101727.34
2022-10-09T15:00:56.807Z,101721.75
2022-10-09T15:03:36.719Z,101713.69
2022-10-09T15:06:19.978Z,101713.31
2022-10-09T15:09:05.383Z,101710.09
2022-10-09T15:11:45.614Z,101710.41
2022-10-09T15:14:25.495Z,101706.84
2022-10-09T15:17:05.232Z,101697.44
2022-10-09T15:19:45.072Z,101704.41
2022-10-09T15:22:24.879Z,101701.03
2022-10-09T15:25:04.769Z,101690.66
2022-10-09T15:27:46.583Z,101676.75
2022-10-09T15:30:27.537Z,101680.78
2022-10-09T15:33:07.295Z,101678.88
2022-10-09T15:35:49.200Z,101674.16
2022-10-09T15:38:30.209Z,101664.59
2022-10-09T15:41:21.845Z,101657.38
2022-10-09T15:44:05.218Z,101654.44
2022-10-09T15:46:45.780Z,101646.91
2022-10-09T15:49:26.972Z,101649.22
2022-10-09T15:52:08.731Z,101646.03
2022-10-09T15:54:49.783Z,101642.88
2022-10-09T15:57:29.549Z,101635.31
2022-10-09T16:00:10.488Z,101632.19
2022-10-09T16:02:51.020Z,101631.66
2022-10-09T16:05:32.282Z,101634.38
2022-10-09T16:08:15.801Z,101624.09
2022-10-09T16:13:54.688Z,101619.94
2022-10-09T16:16:35.984Z,101610.09
2022-10-09T16:19:15.900Z,101601.00
2022-10-09T16:21:57.224Z,101593.88
2022-10-09T16:24:37.008Z,101590.13
2022-10-09T16:27:28.640Z,101590.16
2022-10-09T16:30:13.732Z,101580.84
2022-10-09T16:32:56.748Z,101586.75
2022-10-09T16:35:37.955Z,101586.63
2022-10-09T16:38:19.114Z,101580.47
2022-10-09T16:41:02.662Z,101584.03
2022-10-09T16:43:43.510Z,101577.44
2022-10-09T16:46:25.912Z,101573.97
2022-10-09T16:49:20.083Z,101570.63
2022-10-09T16:52:03.875Z,101568.97
2022-10-09T16:54:45.860Z,101569.13
2022-10-09T16:57:26.687Z,101569.13
2022-10-09T17:00:08.254Z,101561.44
2022-10-09T17:02:49.597Z,101564.09
2022-10-09T17:05:30.942Z,101562.53
2022-10-09T17:08:10.801Z,101551.91
2022-10-09T17:10:52.121Z,101547.53
2022-10-09T17:13:31.939Z,101550.03
2022-10-09T17:16:17.254Z,101544.97
2022-10-09T17:18:59.594Z,101545.94
2022-10-09T17:21:41.439Z,101539.03
2022-10-09T17:24:22.346Z,101524.28
2022-10-09T17:27:02.165Z,101528.34
2022-10-09T17:29:41.960Z,101524.78
2022-10-09T17:32:21.795Z,101517.78
2022-10-09T17:35:03.651Z,101517.59
2022-10-09T17:37:44.642Z,101507.16
2022-10-09T17:40:24.431Z,101514.28
2022-10-09T17:43:06.236Z,101502.72
2022-10-09T17:46:06.759Z,101501.84
2022-10-09T17:48:53.175Z,101494.53
2022-10-09T17:51:37.000Z,101484.13
2022-10-09T17:54:17.230Z,101486.22
2022-10-09T17:57:00.151Z,101480.34
2022-10-09T17:59:41.459Z,101471.19
2022-10-09T18:02:21.259Z,101463.31
2022-10-09T18:05:01.066Z,101460.88
2022-10-09T18:07:42.912Z,101461.41
2022-10-09T18:10:24.098Z,101452.53
2022-10-09T18:13:05.454Z,101449.88
2022-10-09T18:15:46.760Z,101447.00
2022-10-09T18:18:26.567Z,101443.91
2022-10-09T18:21:07.057Z,101434.75
2022-10-09T18:23:47.927Z,101429.13
2022-10-09T18:26:31.344Z,101425.88
2022-10-09T18:29:14.165Z,101413.34
2022-10-09T18:31:57.877Z,101417.94
2022-10-09T18:34:39.290Z,101408.56
2022-10-09T18:37:20.272Z,101409.09
2022-10-09T18:40:00.988Z,101413.91
2022-10-09T18:42:40.987Z,101407.16
2022-10-09T18:45:22.163Z,101404.91
2022-10-09T18:48:03.031Z,101399.34
2022-10-09T18:50:53.417Z,101394.88
2022-10-09T18:53:36.848Z,101402.13
2022-10-09T18:56:20.015Z,101408.91
2022-10-09T18:59:00.626Z,101412.00
2022-10-09T19:01:40.549Z,101409.59
2022-10-09T19:04:21.832Z,101414.28
2022-10-09T19:07:03.624Z,101419.84
2022-10-09T19:09:51.381Z,101411.44
2022-10-09T19:12:37.741Z,101411.69
2022-10-09T19:15:30.492Z,101408.91
2022-10-09T19:18:10.309Z,101416.00
2022-10-09T19:20:52.520Z,101413.44
2022-10-09T19:23:33.279Z,101423.56
2022-10-09T19:26:14.495Z,101424.78
2022-10-09T19:28:56.349Z,101425.28
2022-10-09T19:31:37.291Z,101422.88
2022-10-09T19:34:17.096Z,101420.00
2022-10-09T19:36:56.966Z,101423.72
2022-10-09T19:39:38.285Z,101420.47
2022-10-09T19:42:20.111Z,101417.09
2022-10-09T19:45:01.119Z,101416.38
2022-10-09T19:47:42.899Z,101407.84
2022-10-09T19:50:23.942Z,101409.19
2022-10-09T19:53:06.427Z,101410.38
2022-10-09T19:55:46.746Z,101401.00
2022-10-09T19:58:26.646Z,101396.78
2022-10-09T20:01:08.908Z,101398.00
2022-10-09T20:03:49.809Z,101401.09
2022-10-09T20:06:30.947Z,101394.50
2022-10-09T20:09:12.678Z,101387.84
2022-10-09T20:11:53.598Z,101384.81
2022-10-09T20:14:33.418Z,101382.53
2022-10-09T20:17:15.257Z,101386.03
2022-10-09T20:19:58.258Z,101380.13
2022-10-09T20:22:39.213Z,101379.53
2022-10-09T20:25:39.803Z,101373.72
2022-10-09T20:28:19.684Z,101375.53
2022-10-09T20:31:01.987Z,101374.22
2022-10-09T20:33:43.034Z,101370.13
2022-10-09T20:36:25.260Z,101368.69
2022-10-09T20:39:06.195Z,101366.25
2022-10-09T20:41:56.551Z,101357.84
2022-10-09T20:44:37.879Z,101349.06
2022-10-09T20:47:17.663Z,101356.16
2022-10-09T20:49:59.063Z,101345.56
2022-10-09T20:52:40.869Z,101342.94
2022-10-09T20:55:24.005Z,101345.56
2022-10-09T20:58:06.902Z,101335.00
2022-10-09T21:00:47.930Z,101342.94
2022-10-09T21:03:27.753Z,101328.13
2022-10-09T21:06:08.525Z,101329.56
2022-10-09T21:08:51.162Z,101335.72
2022-10-09T21:11:34.742Z,101331.38
2022-10-09T21:14:17.029Z,101340.75
2022-10-09T21:16:59.945Z,101345.31
2022-10-09T21:19:41.027Z,101347.97
2022-10-09T21:22:20.754Z,101348.22
2022-10-09T21:25:00.550Z,101342.31
2022-10-09T21:27:40.384Z,101342.56
2022-10-09T21:30:20.348Z,101337.63
2022-10-09T21:33:01.806Z,101327.38
2022-10-09T21:36:02.215Z,101330.16
2022-10-09T21:38:44.040Z,101325.09
2022-10-09T21:41:25.299Z,101323.41
2022-10-09T21:44:08.707Z,101324.38
2022-10-09T21:46:51.543Z,101322.69
2022-10-09T21:49:34.446Z,101325.22
2022-10-09T21:52:15.462Z,101322.34
2022-10-09T21:54:55.268Z,101315.38
2022-10-09T21:57:37.177Z,101316.44
2022-10-09T22:00:18.186Z,101317.28
2022-10-09T22:02:59.518Z,101319.09
2022-10-09T22:05:41.299Z,101309.59
2022-10-09T22:08:22.320Z,101305.50
2022-10-09T22:11:05.481Z,101303.69
2022-10-09T22:13:46.704Z,101295.13
2022-10-09T22:16:29.253Z,101289.00
2022-10-09T22:19:09.532Z,101286.34
2022-10-09T22:21:51.035Z,101285.63
2022-10-09T22:24:34.406Z,101279.63
2022-10-09T22:27:17.388Z,101277.94
2022-10-09T22:29:58.371Z,101282.28
2022-10-09T22:32:38.169Z,101277.22
2022-10-09T22:35:20.194Z,101274.34
2022-10-09T22:38:01.060Z,101281.78
2022-10-09T22:40:46.459Z,101283.59
2022-10-09T22:43:31.051Z,101276.75
2022-10-09T22:46:32.112Z,101273.25
2022-10-09T22:49:15.055Z,101268.22
2022-10-09T22:51:57.227Z,101271.69
2022-10-09T22:54:38.271Z,101266.16
2022-10-09T22:57:18.090Z,101272.41
2022-10-09T22:59:57.931Z,101262.91
2022-10-09T23:02:39.290Z,101263.88
2022-10-09T23:05:21.143Z,101258.59
2022-10-09T23:08:02.079Z,101246.94
2022-10-09T23:10:41.918Z,101242.88
2022-10-09T23:13:21.706Z,101243.34
2022-10-09T23:16:01.697Z,101238.06
2022-10-09T23:18:43.066Z,101240.47
2022-10-09T23:21:24.853Z,101239.50
2022-10-09T23:24:06.124Z,101227.44
2022-10-09T23:26:47.326Z,101227.91
2022-10-09T23:29:28.609Z,101231.06
2022-10-09T23:32:09.986Z,101230.44
2022-10-09T23:34:49.737Z,101227.69
2022-10-09T23:37:29.595Z,101219.97
2022-10-09T23:40:09.930Z,101226.00
2022-10-09T23:42:52.333Z,101221.88
2022-10-09T23:45:33.834Z,101215.03
2022-10-09T23:48:15.644Z,101218.53
2022-10-09T23:50:57.128Z,101212.75
2022-10-09T23:53:38.269Z,101211.69
2022-10-09T23:56:20.576Z,101204.72
2022-10-09T23:59:21.626Z,101198.00
